Terminal Aerodrome Forecast
Issued by NWS

Home | Current Version | Previous Version | Text Only | Print | Product List | Glossary On
Versions: 1 2 3 4 5 6 7 8 9 10 11 12 13 14 15
000
FTUS45 KABQ 241120
TAFSAF
TAF
KSAF 241120Z 2412/2512 03005KT P6SM BKN120
     FM241800 15009KT P6SM SCT060
     FM242100 16010KT P6SM VCTS BKN070CB
     FM250000 14013G21KT P6SM VCSH BKN070
     FM250600 12006KT P6SM BKN060=

USA.gov is the U.S. government's official web portal to all federal, state and local government web resources and services.